RPA234 KSAN-KLAS
Flight info
| Callsign | RPA234 |
|---|---|
| Flight time | N/A |
| Altitude | 29000 |
| Route | ECHHO2 SLI SEBBY YELAH MISEN RNDRZ4 |
| Aircraft | E170/M-SDE3GILORVW/S |
Departure
| Time | 2026-04-22 05:44 |
|---|---|
| Airport | San Diego International Airport (KSAN) |
Arrival
| Time | N/A |
|---|---|
| Airport | Harry Reid International Airport (KLAS) |
| Time | Latitude | Longitude | Altitude | Speed | Heading |
|---|---|---|---|---|---|
| 2026-04-22 05:14 | 32.73407 | -117.20183 | 18 ft | 0 kts | 178° |
| 2026-04-22 05:34 | 32.73414 | -117.20184 | 18 ft | 6 kts | 176° |
| 2026-04-22 05:34 | 32.73465 | -117.20195 | 18 ft | 7 kts | 173° |
| 2026-04-22 05:35 | 32.73503 | -117.20184 | 18 ft | 4 kts | 230° |
| 2026-04-22 05:35 | 32.73523 | -117.20149 | 18 ft | 5 kts | 258° |
| 2026-04-22 05:35 | 32.73526 | -117.20106 | 18 ft | 7 kts | 264° |
| 2026-04-22 05:35 | 32.73526 | -117.20081 | 18 ft | 0 kts | 279° |
| 2026-04-22 05:36 | 32.73526 | -117.20078 | 18 ft | 0 kts | 279° |
| 2026-04-22 05:37 | 32.73527 | -117.20081 | 18 ft | 1 kts | 295° |
| 2026-04-22 05:37 | 32.73535 | -117.20100 | 18 ft | 0 kts | 288° |
| 2026-04-22 05:37 | 32.73536 | -117.20106 | 18 ft | 1 kts | 288° |
| 2026-04-22 05:37 | 32.73537 | -117.20106 | 18 ft | 0 kts | 287° |
| 2026-04-22 05:38 | 32.73537 | -117.20107 | 18 ft | 0 kts | 283° |
| 2026-04-22 05:38 | 32.73531 | -117.20110 | 18 ft | 2 kts | 153° |
| 2026-04-22 05:38 | 32.73517 | -117.20071 | 18 ft | 9 kts | 100° |
| 2026-04-22 05:39 | 32.73493 | -117.19955 | 18 ft | 19 kts | 106° |
| 2026-04-22 05:39 | 32.73454 | -117.19788 | 19 ft | 22 kts | 104° |
| 2026-04-22 05:39 | 32.73410 | -117.19611 | 20 ft | 22 kts | 108° |
| 2026-04-22 05:39 | 32.73369 | -117.19442 | 21 ft | 21 kts | 105° |
| 2026-04-22 05:40 | 32.73317 | -117.19227 | 21 ft | 32 kts | 105° |
| 2026-04-22 05:40 | 32.73255 | -117.18973 | 20 ft | 32 kts | 107° |
| 2026-04-22 05:40 | 32.73193 | -117.18713 | 19 ft | 32 kts | 107° |
| 2026-04-22 05:40 | 32.73131 | -117.18456 | 18 ft | 33 kts | 107° |
| 2026-04-22 05:41 | 32.73067 | -117.18195 | 18 ft | 32 kts | 107° |
| 2026-04-22 05:41 | 32.73004 | -117.17936 | 20 ft | 32 kts | 106° |
| 2026-04-22 05:41 | 32.72960 | -117.17760 | 22 ft | 4 kts | 107° |
| 2026-04-22 05:41 | 32.72957 | -117.17748 | 22 ft | 0 kts | 96° |
| 2026-04-22 05:42 | 32.72963 | -117.17710 | 23 ft | 8 kts | 75° |
| 2026-04-22 05:42 | 32.73000 | -117.17659 | 25 ft | 8 kts | 21° |
| 2026-04-22 05:43 | 32.73047 | -117.17696 | 24 ft | 10 kts | 284° |
| 2026-04-22 05:43 | 32.73108 | -117.17934 | 21 ft | 62 kts | 285° |
| 2026-04-22 05:43 | 32.73279 | -117.18657 | 20 ft | 118 kts | 285° |
| 2026-04-22 05:43 | 32.73546 | -117.19777 | 29 ft | 159 kts | 284° |
| 2026-04-22 05:44 | 32.73827 | -117.21083 | 410 ft | 168 kts | 285° |
| 2026-04-22 05:44 | 32.74381 | -117.22315 | 931 ft | 173 kts | 325° |
| 2026-04-22 05:44 | 32.75404 | -117.23019 | 1663 ft | 170 kts | 314° |
| 2026-04-22 05:44 | 32.76054 | -117.24268 | 2085 ft | 190 kts | 297° |
| 2026-04-22 05:45 | 32.76757 | -117.25661 | 2623 ft | 205 kts | 302° |
| 2026-04-22 05:45 | 32.77520 | -117.27130 | 3350 ft | 211 kts | 302° |
| 2026-04-22 05:45 | 32.78326 | -117.28696 | 3785 ft | 232 kts | 301° |
| 2026-04-22 05:45 | 32.79204 | -117.30414 | 4239 ft | 251 kts | 301° |
| 2026-04-22 05:46 | 32.80188 | -117.32180 | 4922 ft | 259 kts | 306° |
| 2026-04-22 05:46 | 32.81270 | -117.33855 | 5188 ft | 253 kts | 306° |
| 2026-04-22 05:46 | 32.82350 | -117.35529 | 5318 ft | 254 kts | 306° |
| 2026-04-22 05:46 | 32.83428 | -117.37199 | 5454 ft | 257 kts | 306° |
| 2026-04-22 05:47 | 32.84559 | -117.38954 | 5831 ft | 271 kts | 306° |
| 2026-04-22 05:47 | 32.85701 | -117.40723 | 6722 ft | 269 kts | 306° |
| 2026-04-22 05:47 | 32.86780 | -117.42394 | 7498 ft | 241 kts | 305° |
| 2026-04-22 05:47 | 32.87849 | -117.44057 | 7769 ft | 260 kts | 305° |
| 2026-04-22 05:48 | 32.88957 | -117.45779 | 8302 ft | 268 kts | 304° |
| 2026-04-22 05:48 | 32.90093 | -117.47544 | 8969 ft | 271 kts | 304° |
| 2026-04-22 05:48 | 32.91244 | -117.49333 | 9684 ft | 271 kts | 303° |
| 2026-04-22 05:48 | 32.92395 | -117.51124 | 10387 ft | 271 kts | 303° |
| 2026-04-22 05:49 | 32.93554 | -117.52930 | 10928 ft | 277 kts | 303° |
| 2026-04-22 05:49 | 32.94755 | -117.54803 | 11345 ft | 287 kts | 303° |
| 2026-04-22 05:49 | 32.95979 | -117.56712 | 11773 ft | 296 kts | 303° |
| 2026-04-22 05:49 | 32.97259 | -117.58707 | 12232 ft | 303 kts | 303° |
| 2026-04-22 05:50 | 32.98563 | -117.60741 | 12750 ft | 307 kts | 303° |
| 2026-04-22 05:50 | 32.99870 | -117.62781 | 13328 ft | 308 kts | 303° |
| 2026-04-22 05:50 | 33.01175 | -117.64820 | 13869 ft | 310 kts | 303° |
| 2026-04-22 05:50 | 33.02500 | -117.66891 | 14423 ft | 312 kts | 303° |
| 2026-04-22 05:51 | 33.03814 | -117.68945 | 14966 ft | 314 kts | 302° |
| 2026-04-22 05:51 | 33.05139 | -117.71019 | 15533 ft | 315 kts | 302° |